createdAt,value
2018-03-04T00:00:38.648Z,89.91
2018-03-04T00:03:06.061Z,90.00
2018-03-04T00:05:33.486Z,89.91
2018-03-04T00:08:00.901Z,89.90
2018-03-04T00:10:28.328Z,89.92
2018-03-04T00:12:55.730Z,89.57
2018-03-04T00:15:23.141Z,89.52
2018-03-04T00:17:50.555Z,89.28
2018-03-04T00:20:17.961Z,89.36
2018-03-04T00:22:45.378Z,89.48
2018-03-04T00:25:12.797Z,89.68
2018-03-04T00:27:40.202Z,89.87
2018-03-04T00:30:07.657Z,90.54
2018-03-04T00:32:35.124Z,90.54
2018-03-04T00:35:02.536Z,90.77
2018-03-04T00:37:29.957Z,90.90
2018-03-04T00:39:57.381Z,91.04
2018-03-04T00:42:24.794Z,91.07
2018-03-04T00:44:52.212Z,90.68
2018-03-04T00:47:19.636Z,91.05
2018-03-04T00:49:47.049Z,91.49
2018-03-04T00:52:14.465Z,91.50
2018-03-04T00:54:42.933Z,91.20
2018-03-04T00:57:10.336Z,91.02
2018-03-04T00:59:37.749Z,91.07
2018-03-04T01:02:05.165Z,90.96
2018-03-04T01:04:32.590Z,90.77
2018-03-04T01:07:00.010Z,90.42
2018-03-04T01:09:27.421Z,90.36
2018-03-04T01:11:54.838Z,90.20
2018-03-04T01:14:22.247Z,89.84
2018-03-04T01:16:49.666Z,90.14
2018-03-04T01:19:17.078Z,90.12
2018-03-04T01:21:44.497Z,90.16
2018-03-04T01:24:11.900Z,89.81
2018-03-04T01:26:39.350Z,89.60
2018-03-04T01:29:06.760Z,89.68
2018-03-04T01:31:34.162Z,89.26
2018-03-04T01:34:01.577Z,89.44
2018-03-04T01:36:28.996Z,89.32
2018-03-04T01:38:56.464Z,89.54
2018-03-04T01:41:23.873Z,91.30
2018-03-04T01:43:51.294Z,91.22
2018-03-04T01:46:18.706Z,91.01
2018-03-04T01:48:46.130Z,90.61
2018-03-04T01:51:13.537Z,90.65
2018-03-04T01:53:40.953Z,90.63
2018-03-04T01:56:08.368Z,90.64
2018-03-04T01:58:35.773Z,90.64
2018-03-04T02:01:03.193Z,90.57
2018-03-04T02:03:30.603Z,90.85
2018-03-04T02:05:58.011Z,90.75
2018-03-04T02:08:25.424Z,91.31
2018-03-04T02:10:52.833Z,91.27
2018-03-04T02:13:20.261Z,91.16
2018-03-04T02:15:47.664Z,91.36
2018-03-04T02:18:15.091Z,91.54
2018-03-04T02:20:42.509Z,92.72
2018-03-04T02:23:09.936Z,93.04
2018-03-04T02:25:37.343Z,93.40
2018-03-04T02:28:04.771Z,93.29
2018-03-04T02:30:32.171Z,93.07
2018-03-04T02:32:59.605Z,93.16
2018-03-04T02:35:27.017Z,93.19
2018-03-04T02:37:54.430Z,93.71
2018-03-04T02:40:21.845Z,93.64
2018-03-04T02:42:49.254Z,93.32
2018-03-04T02:45:16.682Z,93.17
2018-03-04T02:47:44.084Z,93.07
2018-03-04T02:50:11.493Z,92.98
2018-03-04T02:52:38.912Z,92.86
2018-03-04T02:55:06.327Z,92.94
2018-03-04T02:57:33.731Z,93.03
2018-03-04T03:00:01.153Z,93.50
2018-03-04T03:02:28.557Z,93.59
2018-03-04T03:04:55.979Z,93.61
2018-03-04T03:07:23.387Z,93.73
2018-03-04T03:09:50.809Z,93.64
2018-03-04T03:12:18.220Z,93.48
2018-03-04T03:14:45.632Z,93.75
2018-03-04T03:17:13.046Z,93.79
2018-03-04T03:19:40.472Z,93.95
2018-03-04T03:22:07.897Z,93.87
2018-03-04T03:24:35.320Z,93.89
2018-03-04T03:27:02.728Z,94.23
2018-03-04T03:29:30.149Z,94.37
2018-03-04T03:31:57.555Z,94.36
2018-03-04T03:34:24.973Z,94.58
2018-03-04T03:36:52.389Z,94.73
2018-03-04T03:39:20.753Z,94.87
2018-03-04T03:41:48.164Z,94.93
2018-03-04T03:44:15.587Z,94.75
2018-03-04T03:46:43.001Z,94.32
2018-03-04T03:49:10.417Z,93.91
2018-03-04T03:51:37.837Z,93.86
2018-03-04T03:54:05.322Z,93.94
2018-03-04T03:56:32.732Z,94.60
2018-03-04T03:59:00.152Z,94.94
2018-03-04T04:01:27.582Z,95.01
2018-03-04T04:03:54.990Z,94.75
2018-03-04T04:06:22.420Z,94.39
2018-03-04T04:08:49.828Z,94.14
2018-03-04T04:11:17.258Z,94.23
2018-03-04T04:13:44.664Z,93.82
2018-03-04T04:16:12.425Z,93.82
2018-03-04T04:18:39.851Z,93.99
2018-03-04T04:21:07.313Z,94.20
2018-03-04T04:23:34.747Z,94.35
2018-03-04T04:26:02.175Z,94.21
2018-03-04T04:28:29.599Z,94.04
2018-03-04T04:30:57.038Z,94.40
2018-03-04T04:33:24.446Z,94.79
2018-03-04T04:35:51.873Z,95.16
2018-03-04T04:38:19.288Z,95.48
2018-03-04T04:40:46.712Z,95.74
2018-03-04T04:43:14.124Z,95.83
2018-03-04T04:45:41.545Z,95.66
2018-03-04T04:48:08.973Z,95.72
2018-03-04T04:50:36.389Z,95.71
2018-03-04T04:53:03.807Z,95.65
2018-03-04T04:55:31.225Z,95.69
2018-03-04T04:57:58.640Z,95.56
2018-03-04T05:00:26.061Z,95.53
2018-03-04T05:02:53.802Z,95.68
2018-03-04T05:05:21.205Z,95.75
2018-03-04T05:07:48.623Z,95.75
2018-03-04T05:10:16.028Z,95.65
2018-03-04T05:12:43.445Z,95.49
2018-03-04T05:15:10.861Z,95.57
2018-03-04T05:17:38.316Z,95.54
2018-03-04T05:20:05.718Z,95.65
2018-03-04T05:22:33.144Z,95.66
2018-03-04T05:25:00.557Z,95.67
2018-03-04T05:27:27.975Z,95.60
2018-03-04T05:29:55.384Z,95.29
2018-03-04T05:32:22.800Z,94.99
2018-03-04T05:34:50.220Z,94.84
2018-03-04T05:37:17.641Z,94.72
2018-03-04T05:39:45.084Z,94.68
2018-03-04T05:42:12.494Z,94.61
2018-03-04T05:44:39.915Z,94.66
2018-03-04T05:47:07.382Z,94.72
2018-03-04T05:49:34.810Z,94.69
2018-03-04T05:52:02.214Z,94.66
2018-03-04T05:54:29.640Z,94.81
2018-03-04T05:56:57.056Z,94.94
2018-03-04T05:59:25.440Z,95.00
2018-03-04T06:01:52.849Z,95.18
2018-03-04T06:04:20.278Z,95.36
2018-03-04T06:06:47.688Z,95.36
2018-03-04T06:09:15.108Z,95.41
2018-03-04T06:11:42.519Z,95.76
2018-03-04T06:14:09.932Z,96.01
2018-03-04T06:16:37.345Z,95.74
2018-03-04T06:19:04.770Z,95.67
2018-03-04T06:21:32.193Z,95.71
2018-03-04T06:23:59.609Z,95.75
2018-03-04T06:26:27.018Z,95.67
2018-03-04T06:28:54.429Z,95.53
2018-03-04T06:31:21.846Z,95.40
2018-03-04T06:33:49.271Z,95.27
2018-03-04T06:36:17.108Z,95.16
2018-03-04T06:38:44.517Z,95.04
2018-03-04T06:41:11.923Z,94.98
2018-03-04T06:43:39.343Z,94.89
2018-03-04T06:46:06.756Z,94.85
2018-03-04T06:48:34.157Z,94.80
2018-03-04T06:51:01.565Z,94.68
2018-03-04T06:53:28.985Z,94.62
2018-03-04T06:55:56.978Z,94.65
2018-03-04T06:58:24.434Z,94.58
2018-03-04T07:00:51.850Z,94.48
2018-03-04T07:03:19.265Z,94.68
2018-03-04T07:05:46.682Z,94.58
2018-03-04T07:08:14.096Z,94.58
2018-03-04T07:10:41.521Z,94.56
2018-03-04T07:13:08.920Z,94.59
2018-03-04T07:15:36.347Z,94.63
2018-03-04T07:18:03.759Z,94.63
2018-03-04T07:20:31.172Z,94.41
2018-03-04T07:22:58.584Z,94.30
2018-03-04T07:25:26.000Z,94.14
2018-03-04T07:27:53.416Z,93.81
2018-03-04T07:30:20.838Z,93.77
2018-03-04T07:32:48.244Z,93.62
2018-03-04T07:35:15.666Z,93.43
2018-03-04T07:37:43.071Z,93.31
2018-03-04T07:40:10.493Z,93.23
2018-03-04T07:42:37.924Z,92.92
2018-03-04T07:45:05.324Z,92.29
2018-03-04T07:47:32.735Z,92.07
2018-03-04T07:50:00.137Z,92.09
2018-03-04T07:52:27.571Z,91.85
2018-03-04T07:54:54.962Z,91.82
2018-03-04T07:57:22.362Z,91.56
2018-03-04T07:59:49.782Z,91.09
2018-03-04T08:02:17.176Z,89.19
2018-03-04T08:04:44.596Z,88.49
2018-03-04T08:07:12.010Z,88.21
2018-03-04T08:09:39.413Z,87.88
2018-03-04T08:12:06.835Z,87.78
2018-03-04T08:14:34.242Z,87.75
2018-03-04T08:17:01.656Z,87.63
2018-03-04T08:19:29.689Z,87.29
2018-03-04T08:21:57.109Z,87.10
2018-03-04T08:24:42.349Z,86.61
2018-03-04T08:27:21.429Z,86.55
2018-03-04T08:29:48.838Z,86.32
2018-03-04T08:32:16.244Z,86.08
2018-03-04T08:34:43.654Z,86.01
2018-03-04T08:37:11.066Z,85.46
2018-03-04T08:39:38.564Z,84.71
2018-03-04T08:42:05.929Z,84.20
2018-03-04T08:44:33.333Z,83.58
2018-03-04T08:47:00.753Z,82.91
2018-03-04T08:49:28.154Z,82.09
2018-03-04T08:51:55.594Z,81.71
2018-03-04T08:54:22.995Z,81.57
2018-03-04T08:56:50.401Z,81.45
2018-03-04T08:59:17.805Z,81.38
2018-03-04T09:01:45.220Z,80.99
2018-03-04T09:04:12.624Z,80.07
2018-03-04T09:06:40.036Z,78.96
2018-03-04T09:09:07.485Z,78.47
2018-03-04T09:11:34.936Z,76.82
2018-03-04T09:14:02.369Z,76.91
2018-03-04T09:16:29.744Z,75.17
2018-03-04T09:18:57.148Z,76.22
2018-03-04T09:21:24.585Z,76.08
2018-03-04T09:23:52.001Z,74.83
2018-03-04T09:26:19.405Z,75.29
2018-03-04T09:28:46.817Z,74.15
2018-03-04T09:31:14.225Z,73.75
2018-03-04T09:33:41.638Z,74.45
2018-03-04T09:36:09.041Z,73.79
2018-03-04T09:38:36.455Z,74.58
2018-03-04T09:41:03.869Z,74.11
2018-03-04T09:43:31.282Z,72.92
2018-03-04T09:45:58.685Z,73.12
2018-03-04T09:48:26.101Z,72.62
2018-03-04T09:50:53.510Z,72.54
2018-03-04T09:53:20.926Z,71.84
2018-03-04T09:55:48.325Z,71.35
2018-03-04T09:58:15.737Z,71.30
2018-03-04T10:00:43.141Z,70.06
2018-03-04T10:03:10.543Z,70.32
2018-03-04T10:05:37.951Z,68.31
2018-03-04T10:08:05.357Z,67.74
2018-03-04T10:10:33.348Z,67.57
2018-03-04T10:13:00.763Z,68.73
2018-03-04T10:15:28.155Z,66.27
2018-03-04T10:17:55.578Z,65.82
2018-03-04T10:20:22.983Z,66.52
2018-03-04T10:22:50.372Z,65.87
2018-03-04T10:25:17.781Z,64.85
2018-03-04T10:27:45.185Z,65.08
2018-03-04T10:30:12.617Z,64.91
2018-03-04T10:32:40.018Z,64.85
2018-03-04T10:35:07.425Z,64.63
2018-03-04T10:37:34.834Z,64.67
2018-03-04T10:40:02.241Z,63.74
2018-03-04T10:42:29.653Z,63.87
2018-03-04T10:44:57.070Z,63.50
2018-03-04T10:47:24.470Z,62.94
2018-03-04T10:49:51.881Z,62.34
2018-03-04T10:52:19.295Z,62.32
2018-03-04T10:54:46.716Z,62.07
2018-03-04T10:57:14.110Z,61.71
2018-03-04T10:59:41.523Z,61.59
2018-03-04T11:02:14.497Z,61.14
2018-03-04T11:04:41.910Z,59.42
2018-03-04T11:07:09.314Z,59.43
2018-03-04T11:09:36.723Z,59.25
2018-03-04T11:12:04.133Z,59.90
2018-03-04T11:14:31.544Z,58.47
2018-03-04T11:16:58.948Z,57.62
2018-03-04T11:19:26.352Z,58.41
2018-03-04T11:21:53.767Z,58.26
2018-03-04T11:24:21.160Z,57.93
2018-03-04T11:26:49.223Z,57.22
2018-03-04T11:29:16.624Z,56.89
2018-03-04T11:31:44.051Z,56.49
2018-03-04T11:34:11.452Z,56.89
2018-03-04T11:36:38.870Z,55.47
2018-03-04T11:39:06.321Z,55.46
2018-03-04T11:41:33.736Z,55.31
2018-03-04T11:44:01.138Z,54.52
2018-03-04T11:46:28.536Z,53.98
2018-03-04T11:48:55.937Z,50.98
2018-03-04T11:51:23.345Z,50.44
2018-03-04T11:53:50.750Z,51.04
2018-03-04T11:56:18.224Z,51.51
2018-03-04T11:58:45.629Z,50.28
2018-03-04T12:01:13.038Z,50.17
2018-03-04T12:03:40.439Z,49.70
2018-03-04T12:06:07.865Z,49.06
2018-03-04T12:08:35.269Z,50.38
2018-03-04T12:11:02.678Z,49.24
2018-03-04T12:13:30.074Z,49.06
2018-03-04T12:15:57.473Z,47.12
2018-03-04T12:18:24.892Z,46.32
2018-03-04T12:20:52.289Z,45.74
2018-03-04T12:23:19.702Z,46.00
2018-03-04T12:25:47.101Z,45.92
2018-03-04T12:28:14.509Z,46.17
2018-03-04T12:30:41.980Z,45.87
2018-03-04T12:33:09.389Z,46.52
2018-03-04T12:35:36.796Z,46.79
2018-03-04T12:38:04.201Z,45.81
2018-03-04T12:40:31.613Z,44.92
2018-03-04T12:42:59.068Z,44.56
2018-03-04T12:45:26.456Z,44.36
2018-03-04T12:47:53.866Z,44.58
2018-03-04T12:50:21.267Z,45.13
2018-03-04T12:52:48.690Z,43.36
2018-03-04T12:55:16.121Z,43.00
2018-03-04T12:57:43.520Z,43.29
2018-03-04T13:00:10.936Z,44.09
2018-03-04T13:02:39.378Z,43.92
2018-03-04T13:05:06.781Z,43.09
2018-03-04T13:07:34.189Z,42.29
2018-03-04T13:10:01.597Z,41.77
2018-03-04T13:12:29.003Z,41.64
2018-03-04T13:14:56.401Z,41.84
2018-03-04T13:17:23.818Z,41.90
2018-03-04T13:19:51.225Z,41.62
2018-03-04T13:22:18.648Z,40.94
2018-03-04T13:24:46.036Z,39.77
2018-03-04T13:27:13.439Z,39.75
2018-03-04T13:29:40.859Z,39.35
2018-03-04T13:32:08.273Z,39.11
2018-03-04T13:34:35.694Z,39.02
2018-03-04T13:37:03.144Z,39.51
2018-03-04T13:39:30.507Z,39.79
2018-03-04T13:41:57.904Z,39.12
2018-03-04T13:44:25.323Z,39.42
2018-03-04T13:46:52.732Z,41.07
2018-03-04T13:49:20.149Z,39.98
2018-03-04T13:51:47.553Z,40.33
2018-03-04T13:54:14.952Z,38.11
2018-03-04T13:56:42.356Z,38.71
2018-03-04T13:59:09.761Z,37.64
2018-03-04T14:01:37.174Z,37.81
2018-03-04T14:04:04.580Z,37.89
2018-03-04T14:06:32.022Z,37.68
2018-03-04T14:08:59.429Z,36.28
2018-03-04T14:11:26.834Z,37.62
2018-03-04T14:13:54.244Z,38.08
2018-03-04T14:16:21.672Z,38.80
2018-03-04T14:18:49.045Z,39.14
2018-03-04T14:21:16.454Z,39.62
2018-03-04T14:23:43.852Z,38.82
2018-03-04T14:26:11.261Z,39.42
2018-03-04T14:28:38.724Z,39.22
2018-03-04T14:31:06.115Z,39.22
2018-03-04T14:33:33.549Z,39.25
2018-03-04T14:36:00.948Z,39.23
2018-03-04T14:38:28.356Z,39.83
2018-03-04T14:40:55.761Z,39.42
2018-03-04T14:43:23.162Z,38.83
2018-03-04T14:45:50.578Z,38.69
2018-03-04T14:48:17.983Z,39.94
2018-03-04T14:50:45.376Z,39.07
2018-03-04T14:53:12.778Z,39.34
2018-03-04T14:55:40.184Z,39.51
2018-03-04T14:58:07.585Z,39.89
2018-03-04T15:00:34.987Z,39.76
2018-03-04T15:03:02.421Z,39.79
2018-03-04T15:05:29.830Z,39.97
2018-03-04T15:07:57.229Z,40.24
2018-03-04T15:10:24.689Z,40.99
2018-03-04T15:12:52.033Z,40.46
2018-03-04T15:15:20.294Z,40.65
2018-03-04T15:17:47.714Z,40.66
2018-03-04T15:20:15.128Z,41.42
2018-03-04T15:22:42.525Z,41.60
2018-03-04T15:25:09.942Z,41.59
2018-03-04T15:27:37.321Z,42.12
2018-03-04T15:30:04.730Z,42.40
2018-03-04T15:32:32.117Z,42.97
2018-03-04T15:34:59.533Z,42.25
2018-03-04T15:37:26.930Z,42.78
2018-03-04T15:39:54.332Z,42.88
2018-03-04T15:42:21.758Z,43.44
2018-03-04T15:44:49.145Z,44.58
2018-03-04T15:47:16.557Z,45.26
2018-03-04T15:49:43.961Z,45.56
2018-03-04T15:52:11.368Z,46.12
2018-03-04T15:54:38.766Z,46.82
2018-03-04T15:57:06.194Z,46.87
2018-03-04T15:59:33.613Z,47.01
2018-03-04T16:02:01.020Z,46.71
2018-03-04T16:04:28.479Z,47.88
2018-03-04T16:06:55.903Z,48.31
2018-03-04T16:09:23.284Z,48.93
2018-03-04T16:11:50.700Z,48.65
2018-03-04T16:14:18.109Z,49.41
2018-03-04T16:16:45.525Z,49.58
2018-03-04T16:19:12.931Z,49.75
2018-03-04T16:21:40.373Z,49.98
2018-03-04T16:24:07.740Z,50.33
2018-03-04T16:26:35.198Z,50.47
2018-03-04T16:29:02.552Z,50.77
2018-03-04T16:31:29.982Z,50.88
2018-03-04T16:33:57.567Z,51.24
2018-03-04T16:36:24.971Z,51.46
2018-03-04T16:38:52.382Z,51.98
2018-03-04T16:41:19.790Z,52.39
2018-03-04T16:43:47.197Z,52.82
2018-03-04T16:46:14.599Z,53.15
2018-03-04T16:48:42.017Z,53.89
2018-03-04T16:51:09.417Z,54.38
2018-03-04T16:53:36.830Z,54.67
2018-03-04T16:56:04.241Z,55.06
2018-03-04T16:58:31.642Z,55.89
2018-03-04T17:00:59.081Z,56.55
2018-03-04T17:03:26.481Z,56.84
2018-03-04T17:05:53.880Z,57.13
2018-03-04T17:08:21.287Z,57.18
2018-03-04T17:10:48.684Z,57.49
2018-03-04T17:13:16.092Z,57.74
2018-03-04T17:15:43.497Z,57.89
2018-03-04T17:18:10.897Z,58.28
2018-03-04T17:20:38.303Z,59.34
2018-03-04T17:23:05.693Z,58.60
2018-03-04T17:25:33.107Z,59.22
2018-03-04T17:28:00.510Z,58.68
2018-03-04T17:30:27.918Z,58.74
2018-03-04T17:32:55.327Z,58.91
2018-03-04T17:35:22.733Z,58.55
2018-03-04T17:37:50.134Z,58.80
2018-03-04T17:40:17.538Z,59.19
2018-03-04T17:42:44.943Z,59.14
2018-03-04T17:45:12.353Z,59.19
2018-03-04T17:47:39.764Z,59.48
2018-03-04T17:50:07.179Z,59.62
2018-03-04T17:52:34.577Z,59.58
2018-03-04T17:55:01.991Z,59.66
2018-03-04T17:57:29.637Z,59.78
2018-03-04T17:59:57.280Z,60.03
2018-03-04T18:02:25.457Z,59.88
2018-03-04T18:04:52.874Z,60.07
2018-03-04T18:07:20.283Z,60.14
2018-03-04T18:09:47.695Z,60.37
2018-03-04T18:12:15.103Z,60.28
2018-03-04T18:14:42.514Z,60.49
2018-03-04T18:17:09.922Z,60.74
2018-03-04T18:19:37.338Z,60.52
2018-03-04T18:22:04.765Z,61.07
2018-03-04T18:24:32.180Z,61.25
2018-03-04T18:26:59.598Z,61.17
2018-03-04T18:29:27.025Z,61.59
2018-03-04T18:31:54.482Z,61.78
2018-03-04T18:34:21.881Z,61.87
2018-03-04T18:36:49.281Z,62.90
2018-03-04T18:39:16.694Z,61.85
2018-03-04T18:41:44.104Z,62.40
2018-03-04T18:44:11.516Z,62.82
2018-03-04T18:46:38.961Z,62.74
2018-03-04T18:49:06.368Z,63.21
2018-03-04T18:51:33.786Z,63.38
2018-03-04T18:54:01.191Z,63.15
2018-03-04T18:56:28.597Z,63.16
2018-03-04T18:58:56.008Z,63.33
2018-03-04T19:01:23.417Z,63.31
2018-03-04T19:03:50.879Z,63.64
2018-03-04T19:06:19.178Z,64.29
2018-03-04T19:08:46.592Z,64.06
2018-03-04T19:11:14.021Z,64.25
2018-03-04T19:13:41.435Z,64.51
2018-03-04T19:16:08.836Z,64.16
2018-03-04T19:18:36.248Z,64.39
2018-03-04T19:21:03.666Z,64.39
2018-03-04T19:23:31.283Z,64.74
2018-03-04T19:25:59.140Z,65.52
2018-03-04T19:28:26.882Z,65.42
2018-03-04T19:30:54.496Z,65.16
2018-03-04T19:33:21.895Z,64.92
2018-03-04T19:35:49.314Z,65.24
2018-03-04T19:38:16.722Z,64.88
2018-03-04T19:40:44.945Z,64.65
2018-03-04T19:43:12.359Z,64.50
2018-03-04T19:45:39.768Z,64.85
2018-03-04T19:48:08.011Z,63.64
2018-03-04T19:50:35.393Z,63.52
2018-03-04T19:53:02.795Z,63.59
2018-03-04T19:55:30.214Z,63.62
2018-03-04T19:57:57.641Z,63.66
2018-03-04T20:00:25.045Z,64.16
2018-03-04T20:02:52.465Z,63.66
2018-03-04T20:05:19.867Z,64.08
2018-03-04T20:07:47.297Z,64.41
2018-03-04T20:10:14.706Z,64.55
2018-03-04T20:12:42.126Z,64.64
2018-03-04T20:15:09.522Z,64.65
2018-03-04T20:17:36.930Z,65.29
2018-03-04T20:20:04.333Z,64.79
2018-03-04T20:22:31.753Z,63.41
2018-03-04T20:24:59.228Z,64.15
2018-03-04T20:27:26.642Z,64.19
2018-03-04T20:29:54.042Z,64.99
2018-03-04T20:32:21.453Z,63.92
2018-03-04T20:34:48.885Z,64.27
2018-03-04T20:37:16.333Z,66.15
2018-03-04T20:39:43.736Z,66.28
2018-03-04T20:42:11.158Z,64.80
2018-03-04T20:44:38.573Z,64.46
2018-03-04T20:47:06.767Z,65.25
2018-03-04T20:49:34.173Z,65.35
2018-03-04T20:52:01.597Z,66.17
2018-03-04T20:54:29.001Z,64.99
2018-03-04T20:56:56.421Z,66.03
2018-03-04T20:59:23.825Z,65.43
2018-03-04T21:01:51.265Z,65.47
2018-03-04T21:04:18.641Z,64.22
2018-03-04T21:06:46.062Z,64.12
2018-03-04T21:09:13.472Z,65.01
2018-03-04T21:11:40.894Z,64.90
2018-03-04T21:14:08.301Z,64.86
2018-03-04T21:16:35.708Z,64.74
2018-03-04T21:19:03.121Z,63.65
2018-03-04T21:21:30.539Z,63.93
2018-03-04T21:23:57.936Z,64.72
2018-03-04T21:26:25.350Z,63.61
2018-03-04T21:28:52.761Z,64.31
2018-03-04T21:31:20.170Z,65.00
2018-03-04T21:33:47.590Z,64.33
2018-03-04T21:36:15.052Z,65.90
2018-03-04T21:38:42.405Z,65.59
2018-03-04T21:41:09.830Z,65.39
2018-03-04T21:43:37.249Z,64.18
2018-03-04T21:46:04.648Z,64.39
2018-03-04T21:48:32.069Z,64.86
2018-03-04T21:50:59.489Z,66.83
2018-03-04T21:53:27.000Z,64.68
2018-03-04T21:55:54.408Z,66.30
2018-03-04T21:58:21.826Z,65.25
2018-03-04T22:02:39.000Z,67.24
2018-03-04T22:05:06.393Z,67.21
2018-03-04T22:07:33.805Z,66.15
2018-03-04T22:10:01.212Z,66.92
2018-03-04T22:12:28.626Z,67.35
2018-03-04T22:14:56.037Z,67.73
2018-03-04T22:17:23.455Z,68.00
2018-03-04T22:19:50.864Z,67.91
2018-03-04T22:22:18.264Z,68.45
2018-03-04T22:24:45.664Z,68.88
2018-03-04T22:27:13.090Z,68.77
2018-03-04T22:29:40.480Z,69.68
2018-03-04T22:32:07.893Z,70.24
2018-03-04T22:34:35.318Z,70.17
2018-03-04T22:37:02.714Z,70.06
2018-03-04T22:39:30.130Z,70.46
2018-03-04T22:41:57.530Z,70.60
2018-03-04T22:44:24.987Z,70.53
2018-03-04T22:46:52.357Z,70.01
2018-03-04T22:49:19.768Z,69.73
2018-03-04T22:51:47.178Z,69.62
2018-03-04T22:54:14.588Z,69.62
2018-03-04T22:56:42.047Z,69.68
2018-03-04T22:59:09.458Z,69.60
2018-03-04T23:01:36.860Z,69.50
2018-03-04T23:04:04.276Z,68.97
2018-03-04T23:06:31.684Z,69.57
2018-03-04T23:08:59.101Z,69.32
2018-03-04T23:11:26.496Z,69.57
2018-03-04T23:13:53.928Z,69.58
2018-03-04T23:16:21.317Z,69.49
2018-03-04T23:18:53.363Z,69.56
2018-03-04T23:21:20.774Z,69.59
2018-03-04T23:23:48.190Z,69.55
2018-03-04T23:26:15.587Z,68.91
2018-03-04T23:28:43.043Z,69.00
2018-03-04T23:31:10.402Z,69.50
2018-03-04T23:33:37.812Z,69.72
2018-03-04T23:36:05.221Z,69.33
2018-03-04T23:38:32.634Z,69.47
2018-03-04T23:41:00.038Z,69.62
2018-03-04T23:43:27.446Z,69.73
2018-03-04T23:45:54.844Z,69.35
2018-03-04T23:48:22.248Z,69.85
2018-03-04T23:50:49.656Z,69.97
2018-03-04T23:53:17.048Z,70.50
2018-03-04T23:55:44.463Z,71.60
2018-03-04T23:58:11.868Z,71.55
